Time;durP1;ratioP1;P1;durP2;ratioP2;P2;SDS_P1;SDS_P2;PMS_P1;PMS_P2;Temp;Humidity;BMP_temperature;BMP_pressure;BME280_temperature;BME280_humidity;BME280_pressure;Samples;Min_cycle;Max_cycle;Signal;HPM_P1;HPM_P2
2021/05/27 00:00:58;;;;;;;4.30;1.23;;;8.80;99.90;;;;;;5052341;28;20029;-70
2021/05/27 00:03:23;;;;;;;1.98;0.90;;;8.80;99.90;;;;;;5033303;28;20029;-68
2021/05/27 00:05:49;;;;;;;3.25;0.90;;;8.80;99.90;;;;;;5020560;28;20382;-70
2021/05/27 00:08:15;;;;;;;4.43;0.75;;;8.80;99.90;;;;;;5057520;28;20025;-70
2021/05/27 00:10:41;;;;;;;1.15;0.90;;;8.80;99.90;;;;;;5052104;28;20036;-70
2021/05/27 00:13:07;;;;;;;1.10;0.70;;;8.70;99.90;;;;;;5041577;28;20025;-69
2021/05/27 00:15:32;;;;;;;2.10;1.30;;;8.70;99.90;;;;;;5042323;28;20033;-69
2021/05/27 00:17:59;;;;;;;3.03;1.08;;;8.70;99.90;;;;;;5040299;28;20474;-70
2021/05/27 00:20:25;;;;;;;1.15;0.98;;;8.70;99.90;;;;;;5040076;28;20025;-70
2021/05/27 00:22:51;;;;;;;2.35;1.00;;;8.70;99.90;;;;;;5044192;28;20356;-70
2021/05/27 00:25:17;;;;;;;2.08;0.80;;;8.70;99.90;;;;;;5040774;28;20094;-69
2021/05/27 00:27:47;;;;;;;0.88;0.80;;;8.70;99.90;;;;;;5040156;28;20082;-69
2021/05/27 00:30:14;;;;;;;1.13;1.00;;;8.70;99.90;;;;;;5039029;28;20021;-69
2021/05/27 00:32:41;;;;;;;3.20;0.93;;;8.80;99.90;;;;;;5041066;28;20378;-70
2021/05/27 00:35:07;;;;;;;2.13;1.00;;;8.70;99.90;;;;;;5022432;28;20063;-69
2021/05/27 00:37:33;;;;;;;1.60;1.00;;;8.80;99.90;;;;;;5041803;28;20025;-69
2021/05/27 00:39:59;;;;;;;1.17;1.02;;;8.80;99.90;;;;;;5040132;28;20391;-69
2021/05/27 00:42:25;;;;;;;4.90;1.00;;;8.80;99.90;;;;;;5041998;28;20036;-69
2021/05/27 00:45:06;;;;;;;1.15;0.73;;;8.80;99.90;;;;;;5043342;28;20064;-70
2021/05/27 00:47:32;;;;;;;2.45;0.98;;;8.80;99.90;;;;;;5028599;28;20021;-70
2021/05/27 00:49:58;;;;;;;2.40;1.15;;;8.80;99.90;;;;;;5041998;28;20078;-70
2021/05/27 00:52:23;;;;;;;2.25;1.00;;;8.70;99.90;;;;;;5040853;28;20028;-69
2021/05/27 00:54:50;;;;;;;1.70;1.00;;;8.70;99.90;;;;;;5037691;28;20038;-69
2021/05/27 00:57:36;;;;;;;1.33;0.90;;;8.80;99.90;;;;;;5043135;28;20132;-69
2021/05/27 01:00:12;;;;;;;1.02;0.93;;;8.80;99.90;;;;;;5038619;28;20029;-69
2021/05/27 01:02:38;;;;;;;0.95;0.80;;;8.70;99.90;;;;;;5042508;28;20105;-69
2021/05/27 01:05:06;;;;;;;4.63;0.82;;;8.70;99.90;;;;;;5039568;28;20082;-69
2021/05/27 01:07:32;;;;;;;1.17;0.88;;;8.80;99.90;;;;;;5042020;28;20355;-69
2021/05/27 01:09:58;;;;;;;2.55;1.00;;;8.70;99.90;;;;;;5037266;28;20116;-69
2021/05/27 01:12:24;;;;;;;1.00;0.90;;;8.70;99.90;;;;;;5040231;28;20025;-69
2021/05/27 01:17:36;;;;;;;2.67;0.75;;;8.70;99.90;;;;;;5042464;28;20035;-69
2021/05/27 01:20:04;;;;;;;1.83;0.98;;;8.70;99.90;;;;;;5042286;28;20093;-69
2021/05/27 01:22:30;;;;;;;1.42;0.80;;;8.70;99.90;;;;;;5040985;28;20030;-69
2021/05/27 01:24:56;;;;;;;2.47;0.90;;;8.70;99.90;;;;;;5040364;28;20152;-70
2021/05/27 01:27:21;;;;;;;1.05;0.80;;;8.80;99.90;;;;;;5039857;28;20034;-69
2021/05/27 01:29:53;;;;;;;1.75;1.05;;;8.80;99.90;;;;;;5021900;28;20115;-69
2021/05/27 01:32:20;;;;;;;3.40;0.90;;;8.90;99.90;;;;;;5038008;28;20141;-69
2021/05/27 01:34:46;;;;;;;4.20;1.10;;;8.80;99.90;;;;;;5039862;28;20488;-68
2021/05/27 01:37:11;;;;;;;1.00;0.98;;;8.80;99.90;;;;;;5040639;28;20061;-68
2021/05/27 01:39:37;;;;;;;1.05;0.85;;;8.80;99.90;;;;;;5021261;28;20061;-69
2021/05/27 01:42:04;;;;;;;2.35;1.15;;;8.80;99.90;;;;;;5021796;28;20029;-69
2021/05/27 01:44:29;;;;;;;0.98;0.80;;;8.80;99.90;;;;;;5021254;28;20036;-70
2021/05/27 01:46:55;;;;;;;3.40;1.00;;;8.70;99.90;;;;;;5042861;28;20029;-69
2021/05/27 01:49:21;;;;;;;1.13;1.00;;;8.70;99.90;;;;;;5040868;28;20096;-69
2021/05/27 01:51:50;;;;;;;1.02;1.02;;;8.70;99.90;;;;;;5040070;28;20032;-69
2021/05/27 01:54:17;;;;;;;1.30;0.80;;;8.70;99.90;;;;;;5008319;28;20113;-69
2021/05/27 01:56:44;;;;;;;1.10;1.00;;;8.70;99.90;;;;;;5041887;28;20158;-69
2021/05/27 01:59:10;;;;;;;1.10;0.98;;;8.70;99.90;;;;;;5040213;28;20084;-69
2021/05/27 02:01:36;;;;;;;5.18;1.63;;;8.70;99.90;;;;;;5038497;28;20508;-68
2021/05/27 02:04:03;;;;;;;1.23;0.98;;;8.60;99.90;;;;;;5021918;28;20453;-69
2021/05/27 02:06:31;;;;;;;0.88;0.80;;;8.60;99.90;;;;;;5040596;28;20095;-69
2021/05/27 02:09:11;;;;;;;1.25;1.02;;;8.60;99.90;;;;;;5021141;28;20496;-69
2021/05/27 02:11:46;;;;;;;1.48;0.90;;;8.60;99.90;;;;;;5037081;28;20395;-69
2021/05/27 02:14:14;;;;;;;1.85;0.95;;;8.60;99.90;;;;;;5038117;28;20033;-69
2021/05/27 02:16:42;;;;;;;1.92;0.98;;;8.70;99.90;;;;;;5039698;28;20033;-70
2021/05/27 02:19:09;;;;;;;0.82;0.82;;;8.70;99.90;;;;;;5039510;28;20036;-70
2021/05/27 02:21:36;;;;;;;1.98;0.95;;;8.70;99.90;;;;;;5039171;28;20037;-70
2021/05/27 02:24:04;;;;;;;2.03;1.20;;;8.70;99.90;;;;;;5038261;28;20030;-70
2021/05/27 02:26:30;;;;;;;3.60;1.05;;;8.70;99.90;;;;;;5040760;28;20034;-69
2021/05/27 02:28:56;;;;;;;1.45;1.00;;;8.80;99.90;;;;;;5024117;28;20029;-70
2021/05/27 02:31:23;;;;;;;4.18;1.10;;;8.80;99.90;;;;;;5049932;28;20040;-70
2021/05/27 02:33:52;;;;;;;2.33;1.00;;;8.80;99.90;;;;;;5048931;28;20111;-69
2021/05/27 02:36:19;;;;;;;3.13;1.13;;;8.80;99.90;;;;;;5049475;28;20083;-70
2021/05/27 02:38:45;;;;;;;1.67;1.23;;;8.80;99.90;;;;;;5046140;28;20037;-70
2021/05/27 02:41:11;;;;;;;1.55;1.20;;;8.80;99.90;;;;;;5030577;28;20501;-70
2021/05/27 02:43:37;;;;;;;1.70;0.77;;;8.80;99.90;;;;;;5032027;28;20105;-70
2021/05/27 02:46:03;;;;;;;0.82;0.82;;;8.80;99.90;;;;;;5030284;28;20029;-70
2021/05/27 02:48:30;;;;;;;0.93;0.93;;;8.80;99.90;;;;;;5037890;28;20446;-70
2021/05/27 02:50:57;;;;;;;0.90;0.80;;;8.80;99.90;;;;;;5046108;28;20040;-71
2021/05/27 02:53:24;;;;;;;0.95;0.93;;;8.70;99.90;;;;;;5041788;28;20029;-70
2021/05/27 02:55:52;;;;;;;1.95;1.23;;;8.70;99.90;;;;;;5039843;28;20080;-70
2021/05/27 02:58:18;;;;;;;1.65;1.00;;;8.70;99.90;;;;;;5044381;28;20053;-71
2021/05/27 03:00:44;;;;;;;2.75;1.20;;;8.70;99.90;;;;;;5046043;28;20029;-70
2021/05/27 03:03:10;;;;;;;0.80;0.80;;;8.70;99.90;;;;;;5051595;28;20162;-70
2021/05/27 03:05:36;;;;;;;3.78;0.95;;;8.70;99.90;;;;;;5038255;28;20099;-70
2021/05/27 03:08:02;;;;;;;2.22;0.75;;;8.70;99.90;;;;;;5049506;28;20471;-70
2021/05/27 03:10:27;;;;;;;5.93;1.08;;;8.70;99.90;;;;;;5053775;28;20021;-70
2021/05/27 03:12:53;;;;;;;1.08;0.90;;;8.80;99.90;;;;;;5052878;28;20108;-69
2021/05/27 03:15:19;;;;;;;1.08;0.73;;;8.70;99.90;;;;;;5052412;28;20051;-70
2021/05/27 03:17:45;;;;;;;1.95;0.93;;;8.70;99.90;;;;;;5041976;28;20083;-69
2021/05/27 03:20:11;;;;;;;3.03;0.90;;;8.70;99.90;;;;;;5040345;28;20461;-69
2021/05/27 03:22:38;;;;;;;2.00;1.10;;;8.70;99.90;;;;;;5044510;28;20032;-69
2021/05/27 03:25:04;;;;;;;2.25;0.90;;;8.60;99.90;;;;;;5019115;28;20079;-70
2021/05/27 03:27:30;;;;;;;2.25;1.30;;;8.60;99.90;;;;;;5047067;28;20378;-69
2021/05/27 03:29:55;;;;;;;1.85;1.20;;;8.60;99.90;;;;;;5053364;28;20032;-69
2021/05/27 03:32:21;;;;;;;2.42;1.00;;;8.60;99.90;;;;;;5042056;28;20544;-69
2021/05/27 03:34:47;;;;;;;1.42;1.15;;;8.50;99.90;;;;;;5053023;28;20035;-70
2021/05/27 03:37:13;;;;;;;1.65;1.23;;;8.50;99.90;;;;;;5019482;28;20079;-70
2021/05/27 03:39:38;;;;;;;2.05;1.10;;;8.50;99.90;;;;;;5016116;28;20033;-70
2021/05/27 03:42:04;;;;;;;1.63;1.10;;;8.40;99.90;;;;;;5032630;28;20038;-68
2021/05/27 03:44:30;;;;;;;3.38;1.27;;;8.40;99.90;;;;;;5037642;28;20037;-70
2021/05/27 03:46:55;;;;;;;7.75;1.48;;;8.40;99.90;;;;;;5046047;28;20493;-70
2021/05/27 03:49:21;;;;;;;1.33;1.00;;;8.40;99.90;;;;;;5051919;28;20493;-70
2021/05/27 03:51:47;;;;;;;1.60;0.98;;;8.40;99.90;;;;;;5050487;28;20017;-69
2021/05/27 03:54:12;;;;;;;1.13;1.02;;;8.50;99.90;;;;;;5041380;28;20025;-69
2021/05/27 03:56:38;;;;;;;1.48;1.08;;;8.50;99.90;;;;;;5033468;28;20091;-70
2021/05/27 04:01:48;;;;;;;2.35;1.55;;;8.50;99.90;;;;;;5041460;28;20041;-70
2021/05/27 04:09:30;;;;;;;1.85;1.30;;;8.50;99.90;;;;;;5034519;28;20036;-69
2021/05/27 04:14:42;;;;;;;2.85;1.27;;;8.50;99.90;;;;;;5015732;28;20423;-70
2021/05/27 04:17:10;;;;;;;1.08;0.98;;;8.50;99.90;;;;;;5039897;28;20111;-70
2021/05/27 04:19:36;;;;;;;3.08;1.25;;;8.50;99.90;;;;;;5050901;28;20029;-70
2021/05/27 04:22:04;;;;;;;2.03;1.20;;;8.60;99.90;;;;;;5046830;28;20387;-71
2021/05/27 04:24:29;;;;;;;2.42;1.52;;;8.60;99.90;;;;;;5039580;28;20043;-68
2021/05/27 04:26:55;;;;;;;1.67;1.42;;;8.60;99.90;;;;;;5044137;28;20029;-68
2021/05/27 04:29:21;;;;;;;2.92;1.20;;;8.70;99.90;;;;;;5037389;28;20052;-68
2021/05/27 04:31:46;;;;;;;2.20;1.02;;;8.70;99.90;;;;;;5033167;28;20049;-68
2021/05/27 04:34:12;;;;;;;2.38;1.30;;;8.80;99.90;;;;;;5028429;28;20104;-68
2021/05/27 04:36:37;;;;;;;2.20;1.10;;;8.90;99.90;;;;;;5047509;28;20432;-68
2021/05/27 04:39:03;;;;;;;2.85;1.20;;;8.90;99.90;;;;;;5032303;28;20032;-68
2021/05/27 04:41:29;;;;;;;3.22;1.95;;;8.90;99.90;;;;;;5051933;28;20032;-68
2021/05/27 04:43:55;;;;;;;3.15;1.40;;;8.90;99.90;;;;;;5041512;28;20036;-68
2021/05/27 04:46:22;;;;;;;2.28;1.40;;;9.00;99.90;;;;;;5031997;28;20617;-68
2021/05/27 04:48:47;;;;;;;1.45;1.35;;;9.00;99.90;;;;;;5033762;28;20075;-68
2021/05/27 04:51:13;;;;;;;3.00;1.25;;;9.10;99.90;;;;;;5039510;28;20029;-69
2021/05/27 04:53:39;;;;;;;2.92;1.30;;;9.20;99.90;;;;;;5039339;28;20028;-69
2021/05/27 04:56:05;;;;;;;2.45;1.20;;;9.30;99.90;;;;;;5014051;28;20036;-69
2021/05/27 04:58:32;;;;;;;1.40;1.15;;;9.30;99.90;;;;;;5032284;28;20099;-69
2021/05/27 05:00:59;;;;;;;2.78;1.67;;;9.50;99.90;;;;;;5018615;28;20102;-69
2021/05/27 05:03:25;;;;;;;3.90;1.52;;;9.50;99.90;;;;;;5037542;28;20033;-69
2021/05/27 05:05:51;;;;;;;2.50;1.40;;;9.60;99.90;;;;;;5038177;28;20080;-69
2021/05/27 05:08:17;;;;;;;2.15;1.13;;;9.60;99.90;;;;;;5045026;28;20097;-69
2021/05/27 05:10:43;;;;;;;1.40;1.20;;;9.70;99.90;;;;;;5037703;28;20495;-69
2021/05/27 05:13:09;;;;;;;3.17;1.00;;;9.80;99.90;;;;;;5049929;28;20382;-69
2021/05/27 05:15:39;;;;;;;2.28;1.60;;;9.90;99.90;;;;;;5050805;28;20385;-69
2021/05/27 05:18:07;;;;;;;2.35;1.30;;;10.00;99.90;;;;;;5038218;28;20042;-69
2021/05/27 05:20:34;;;;;;;3.47;1.48;;;10.00;99.90;;;;;;5033058;28;20030;-69
2021/05/27 05:23:01;;;;;;;2.20;1.20;;;10.10;99.90;;;;;;5049410;28;20173;-69
2021/05/27 05:25:28;;;;;;;1.23;1.10;;;10.20;99.90;;;;;;5050735;28;20069;-69
2021/05/27 05:27:54;;;;;;;3.00;1.20;;;10.30;99.90;;;;;;5042938;28;20037;-69
2021/05/27 05:30:22;;;;;;;4.55;1.50;;;10.30;99.90;;;;;;5040439;28;20116;-69
2021/05/27 05:32:48;;;;;;;4.15;1.15;;;10.50;99.90;;;;;;5044346;28;20083;-71
2021/05/27 05:35:17;;;;;;;4.38;1.38;;;10.50;99.90;;;;;;5033791;28;20079;-70
2021/05/27 05:37:43;;;;;;;4.03;1.13;;;10.60;99.90;;;;;;5032321;28;20140;-69
2021/05/27 05:40:11;;;;;;;2.65;1.33;;;10.60;99.90;;;;;;5032992;28;20037;-70
2021/05/27 05:42:38;;;;;;;2.17;1.30;;;10.80;99.90;;;;;;5050807;28;20033;-70
2021/05/27 05:45:05;;;;;;;2.58;1.35;;;10.90;99.90;;;;;;5049873;28;20060;-70
2021/05/27 05:47:31;;;;;;;3.33;1.25;;;10.90;99.90;;;;;;5049856;28;20029;-70
2021/05/27 05:49:57;;;;;;;2.42;1.30;;;10.90;99.90;;;;;;5045851;28;20031;-70
2021/05/27 05:52:23;;;;;;;2.00;1.35;;;10.90;99.90;;;;;;5030782;28;20609;-70
2021/05/27 05:54:48;;;;;;;3.00;1.02;;;11.00;99.90;;;;;;5042988;28;20032;-71
2021/05/27 05:57:14;;;;;;;1.33;1.05;;;11.10;99.90;;;;;;5049080;28;20091;-71
2021/05/27 05:59:40;;;;;;;2.47;1.23;;;11.10;99.90;;;;;;5045465;28;20033;-70
2021/05/27 06:02:05;;;;;;;2.85;1.30;;;11.10;99.90;;;;;;5032069;28;20030;-69
2021/05/27 06:04:32;;;;;;;2.58;1.05;;;11.10;95.60;;;;;;5032475;28;20062;-71
2021/05/27 06:06:57;;;;;;;4.07;1.25;;;11.10;95.60;;;;;;5039059;28;20028;-71
2021/05/27 06:09:25;;;;;;;4.03;1.10;;;11.30;94.50;;;;;;5043345;28;20625;-70
2021/05/27 06:11:51;;;;;;;1.42;1.13;;;11.40;92.20;;;;;;5031622;28;20386;-71
2021/05/27 06:14:17;;;;;;;3.50;1.05;;;11.40;92.10;;;;;;5021098;28;20037;-70
2021/05/27 06:16:43;;;;;;;1.75;1.10;;;11.40;91.50;;;;;;5045609;28;20033;-72
2021/05/27 06:19:09;;;;;;;1.70;0.95;;;11.50;92.60;;;;;;5041794;28;20108;-71
2021/05/27 06:21:34;;;;;;;1.90;1.00;;;11.60;91.90;;;;;;5049737;28;20032;-71
2021/05/27 06:24:00;;;;;;;2.17;0.85;;;11.70;89.70;;;;;;5053654;28;20563;-72
2021/05/27 06:26:26;;;;;;;2.25;1.00;;;11.80;89.50;;;;;;5043803;28;20446;-72
2021/05/27 06:28:52;;;;;;;4.47;1.30;;;11.90;84.80;;;;;;5044900;28;20029;-72
2021/05/27 06:31:18;;;;;;;2.28;0.70;;;12.10;81.50;;;;;;5054164;28;20032;-71
2021/05/27 06:33:44;;;;;;;2.72;1.00;;;12.10;82.20;;;;;;5054072;28;20028;-71
2021/05/27 06:36:10;;;;;;;1.45;0.63;;;12.20;81.00;;;;;;5035751;28;20071;-72
2021/05/27 06:38:36;;;;;;;2.10;0.75;;;12.30;80.00;;;;;;5034364;28;20167;-71
2021/05/27 06:41:02;;;;;;;1.10;0.80;;;12.30;81.00;;;;;;5041930;28;20043;-73
2021/05/27 06:43:28;;;;;;;4.85;1.10;;;12.50;80.60;;;;;;5036797;28;20114;-72
2021/05/27 06:45:55;;;;;;;2.05;0.88;;;12.60;77.30;;;;;;5052798;28;20532;-72
2021/05/27 06:48:21;;;;;;;3.60;1.10;;;12.50;77.90;;;;;;5039737;28;20022;-72
2021/05/27 06:50:46;;;;;;;8.13;1.45;;;12.60;78.40;;;;;;5051069;28;20017;-72
2021/05/27 06:53:15;;;;;;;2.92;1.00;;;12.80;75.70;;;;;;5039198;28;20458;-72
2021/05/27 06:55:42;;;;;;;2.58;0.88;;;12.80;77.10;;;;;;5039524;28;20029;-73
2021/05/27 06:58:10;;;;;;;2.03;0.98;;;12.90;75.70;;;;;;5053188;28;20056;-71
2021/05/27 07:00:36;;;;;;;3.20;1.52;;;13.00;74.10;;;;;;5052551;28;20112;-73
2021/05/27 07:03:04;;;;;;;2.38;0.70;;;12.90;74.70;;;;;;5048611;28;20037;-71
2021/05/27 07:05:30;;;;;;;6.80;1.10;;;12.80;73.20;;;;;;5036474;28;20037;-71
2021/05/27 07:07:59;;;;;;;2.92;1.55;;;12.90;73.60;;;;;;5037633;28;20032;-72
2021/05/27 07:10:24;;;;;;;1.45;0.70;;;12.90;73.70;;;;;;5037250;28;20108;-72
2021/05/27 07:12:55;;;;;;;1.10;0.73;;;12.90;72.20;;;;;;5046606;28;20113;-72
2021/05/27 07:15:23;;;;;;;1.30;0.88;;;13.00;73.50;;;;;;5051973;28;20527;-70
2021/05/27 07:17:50;;;;;;;2.63;0.77;;;13.10;70.80;;;;;;5049641;28;20036;-71
2021/05/27 07:20:18;;;;;;;1.15;0.90;;;13.10;72.30;;;;;;5037929;28;20040;-71
2021/05/27 07:22:44;;;;;;;4.05;1.40;;;13.10;72.80;;;;;;5044488;28;20025;-71
2021/05/27 07:25:11;;;;;;;1.85;0.70;;;13.10;72.40;;;;;;5052595;28;20025;-69
2021/05/27 07:27:38;;;;;;;1.70;0.75;;;13.10;72.10;;;;;;5051608;28;20079;-71
2021/05/27 07:30:06;;;;;;;3.33;1.48;;;13.00;72.30;;;;;;5045624;28;20044;-71
2021/05/27 07:32:32;;;;;;;2.70;1.10;;;12.90;71.00;;;;;;5041302;28;20490;-71
2021/05/27 07:34:58;;;;;;;4.53;1.00;;;12.90;72.60;;;;;;5033687;28;20540;-71
2021/05/27 07:37:23;;;;;;;1.40;0.90;;;12.70;71.60;;;;;;5033004;28;20060;-69
2021/05/27 07:39:49;;;;;;;3.60;0.90;;;12.50;72.40;;;;;;5042723;28;20111;-72
2021/05/27 07:42:15;;;;;;;1.80;1.10;;;12.40;72.00;;;;;;5046493;28;20390;-71
2021/05/27 07:44:41;;;;;;;1.88;0.80;;;12.50;72.50;;;;;;5053752;28;20025;-72
2021/05/27 07:47:07;;;;;;;1.42;0.60;;;12.60;73.00;;;;;;5034520;28;20121;-70
2021/05/27 07:49:33;;;;;;;3.78;1.13;;;12.90;72.30;;;;;;5038276;28;20112;-71
2021/05/27 07:51:59;;;;;;;2.08;0.75;;;13.20;70.80;;;;;;5039077;28;20038;-71
2021/05/27 07:54:25;;;;;;;1.95;0.85;;;13.40;68.30;;;;;;5032555;28;20052;-71
2021/05/27 07:56:51;;;;;;;5.95;0.90;;;13.50;67.60;;;;;;5052833;28;20103;-70
2021/05/27 07:59:17;;;;;;;0.77;0.70;;;13.70;66.50;;;;;;5044121;28;20104;-70
2021/05/27 08:01:43;;;;;;;1.85;0.52;;;13.90;65.60;;;;;;5053083;28;20108;-72
2021/05/27 08:04:09;;;;;;;2.45;0.75;;;14.00;66.00;;;;;;5052222;28;20036;-69
2021/05/27 08:06:36;;;;;;;2.25;0.70;;;14.00;66.10;;;;;;5051835;28;20063;-71
2021/05/27 08:09:03;;;;;;;0.85;0.80;;;14.10;64.80;;;;;;5052409;28;20033;-72
2021/05/27 08:11:28;;;;;;;2.63;1.10;;;14.20;65.10;;;;;;5034818;28;20045;-70
2021/05/27 08:13:54;;;;;;;5.35;1.00;;;14.40;64.80;;;;;;5034857;28;20031;-70
2021/05/27 08:16:19;;;;;;;3.60;0.95;;;14.50;64.00;;;;;;5051089;28;20413;-71
2021/05/27 08:18:45;;;;;;;4.00;1.00;;;14.50;63.30;;;;;;5035382;28;20071;-71
2021/05/27 08:21:11;;;;;;;3.78;1.10;;;14.40;63.10;;;;;;5050411;28;20029;-70
2021/05/27 08:23:38;;;;;;;5.40;1.02;;;14.40;63.70;;;;;;5051942;28;20021;-71
2021/05/27 08:26:03;;;;;;;2.30;0.80;;;14.50;63.60;;;;;;5051470;28;20021;-72
2021/05/27 08:28:30;;;;;;;1.67;0.90;;;14.70;63.00;;;;;;5042913;28;20651;-72
2021/05/27 08:30:55;;;;;;;3.75;1.70;;;14.80;63.10;;;;;;5049207;28;20382;-72
2021/05/27 08:33:21;;;;;;;0.75;0.50;;;14.80;61.70;;;;;;5034673;28;20036;-72
2021/05/27 08:35:47;;;;;;;3.50;0.70;;;14.60;62.30;;;;;;5032605;28;20044;-71
2021/05/27 08:38:13;;;;;;;2.13;0.80;;;14.60;62.10;;;;;;5033260;28;20036;-71
2021/05/27 08:40:39;;;;;;;5.55;1.13;;;14.80;62.80;;;;;;5015945;28;20033;-72
2021/05/27 08:43:07;;;;;;;1.77;0.80;;;15.00;60.90;;;;;;5032701;28;20391;-72
2021/05/27 08:45:37;;;;;;;2.72;1.02;;;15.20;60.90;;;;;;5035602;28;20029;-71
2021/05/27 08:48:13;;;;;;;2.40;0.70;;;15.40;59.80;;;;;;5040885;28;20082;-72
2021/05/27 08:50:48;;;;;;;3.33;0.75;;;15.60;60.00;;;;;;5041967;28;20033;-69
2021/05/27 08:53:16;;;;;;;3.55;0.80;;;15.70;58.30;;;;;;5050814;28;20039;-69
2021/05/27 08:55:43;;;;;;;2.10;0.65;;;15.70;58.70;;;;;;5051589;28;20052;-71
2021/05/27 08:58:09;;;;;;;1.33;0.70;;;15.90;58.00;;;;;;5049361;28;20053;-71
2021/05/27 09:00:35;;;;;;;5.70;0.82;;;16.00;58.30;;;;;;5039160;28;20021;-72
2021/05/27 09:03:04;;;;;;;2.58;0.90;;;16.10;57.00;;;;;;5036264;28;20543;-72
2021/05/27 09:06:00;;;;;;;3.72;1.50;;;16.10;57.80;;;;;;5022645;28;20724;-71
2021/05/27 09:08:34;;;;;;;2.35;0.77;;;16.00;57.40;;;;;;5047314;28;20036;-71
2021/05/27 09:11:02;;;;;;;11.05;0.88;;;16.00;57.20;;;;;;5031602;28;20449;-71
2021/05/27 09:13:28;;;;;;;1.80;0.90;;;16.10;57.60;;;;;;5031390;28;20025;-71
2021/05/27 09:16:12;;;;;;;1.27;0.70;;;16.40;55.70;;;;;;5031810;28;20033;-71
2021/05/27 09:18:40;;;;;;;0.98;0.57;;;16.50;55.30;;;;;;5041375;28;20032;-70
2021/05/27 09:21:08;;;;;;;4.85;1.15;;;16.80;54.80;;;;;;5039479;28;20463;-71
2021/05/27 09:23:36;;;;;;;2.40;0.60;;;17.00;54.10;;;;;;5042491;28;20434;-71
2021/05/27 09:26:20;;;;;;;4.38;0.85;;;17.00;52.90;;;;;;5041299;28;20071;-70
2021/05/27 09:28:47;;;;;;;2.67;0.85;;;16.90;54.00;;;;;;5027365;28;20033;-71
2021/05/27 09:31:19;;;;;;;4.05;0.73;;;16.70;53.30;;;;;;5049549;28;20412;-69
2021/05/27 09:33:50;;;;;;;2.65;0.90;;;16.50;54.10;;;;;;5051205;28;20067;-71
2021/05/27 09:36:19;;;;;;;4.93;1.50;;;16.50;55.70;;;;;;5047678;28;20025;-71
2021/05/27 09:38:56;;;;;;;1.08;0.50;;;16.50;55.40;;;;;;5032189;28;20108;-71
2021/05/27 09:41:27;;;;;;;3.85;0.98;;;16.40;55.10;;;;;;5035117;28;20425;-71
2021/05/27 09:43:58;;;;;;;2.38;0.80;;;16.30;55.10;;;;;;5032147;28;20390;-70
2021/05/27 09:46:24;;;;;;;2.17;0.75;;;16.10;54.50;;;;;;5036583;28;20025;-71
2021/05/27 09:49:13;;;;;;;1.08;0.63;;;15.90;55.80;;;;;;5037338;28;20048;-72
2021/05/27 09:51:41;;;;;;;4.82;0.93;;;15.70;56.60;;;;;;5050433;28;20378;-69
2021/05/27 09:54:08;;;;;;;4.90;4.35;;;15.60;57.60;;;;;;5050999;28;20029;-70
2021/05/27 09:56:38;;;;;;;3.72;1.30;;;15.60;58.10;;;;;;5047382;28;20021;-70
2021/05/27 09:59:04;;;;;;;16.13;11.65;;;15.70;57.10;;;;;;5047248;28;20044;-71
2021/05/27 10:01:30;;;;;;;68.72;62.35;;;15.90;56.30;;;;;;5045554;28;20036;-71
2021/05/27 10:04:25;;;;;;;5.40;4.00;;;16.00;55.90;;;;;;5044966;28;20080;-72
2021/05/27 10:06:51;;;;;;;11.20;7.22;;;15.90;55.90;;;;;;5020742;28;20033;-71
2021/05/27 10:09:19;;;;;;;2.67;1.48;;;15.90;56.50;;;;;;5037566;28;20034;-70
2021/05/27 10:11:46;;;;;;;1.77;0.90;;;16.00;55.30;;;;;;5017891;28;20026;-72
2021/05/27 10:14:12;;;;;;;4.03;2.97;;;16.10;53.90;;;;;;5036294;28;20037;-70
2021/05/27 10:16:38;;;;;;;2.78;0.80;;;16.20;55.20;;;;;;5039884;28;20033;-71
2021/05/27 10:19:07;;;;;;;3.33;0.80;;;16.20;53.80;;;;;;5036119;28;20063;-71
2021/05/27 10:21:33;;;;;;;2.15;1.30;;;16.10;54.30;;;;;;5034401;28;20094;-71
2021/05/27 10:24:00;;;;;;;1.23;0.60;;;16.00;56.00;;;;;;5036383;28;20106;-71
2021/05/27 10:26:28;;;;;;;2.50;0.70;;;15.80;55.80;;;;;;5034358;28;20053;-73
2021/05/27 10:28:55;;;;;;;3.60;1.08;;;15.50;55.90;;;;;;5034901;28;20467;-70
2021/05/27 10:31:26;;;;;;;3.30;0.80;;;15.30;57.70;;;;;;5041247;28;20486;-72
2021/05/27 10:33:52;;;;;;;2.10;1.05;;;15.20;57.40;;;;;;5042652;28;20021;-72
2021/05/27 10:36:19;;;;;;;2.13;0.90;;;15.00;59.10;;;;;;5040331;28;20025;-71
2021/05/27 10:38:49;;;;;;;4.30;1.13;;;14.90;58.80;;;;;;5034346;28;20029;-71
2021/05/27 10:41:41;;;;;;;2.50;1.00;;;15.00;58.10;;;;;;5034170;28;20026;-69
2021/05/27 10:44:11;;;;;;;2.13;1.10;;;15.00;58.30;;;;;;5043597;28;20033;-72
2021/05/27 10:47:03;;;;;;;2.90;1.60;;;15.00;59.30;;;;;;5053273;28;20144;-72
2021/05/27 10:49:42;;;;;;;5.20;0.90;;;14.90;60.10;;;;;;5042863;28;20029;-71
2021/05/27 10:52:30;;;;;;;4.50;1.20;;;15.00;61.00;;;;;;5042767;28;20382;-70
2021/05/27 10:54:56;;;;;;;3.90;1.27;;;15.00;61.00;;;;;;5053637;28;20033;-71
2021/05/27 10:57:40;;;;;;;5.93;1.30;;;15.10;60.80;;;;;;5049507;28;20344;-71
2021/05/27 11:00:31;;;;;;;2.20;0.98;;;15.30;60.20;;;;;;5042730;28;20060;-71
2021/05/27 11:03:35;;;;;;;2.25;1.30;;;15.60;60.30;;;;;;5049291;28;20026;-71
2021/05/27 11:06:34;;;;;;;2.00;1.00;;;15.80;60.20;;;;;;5051534;28;20037;-71
2021/05/27 11:09:16;;;;;;;3.95;0.90;;;16.00;59.50;;;;;;5034300;28;20026;-71
2021/05/27 11:12:16;;;;;;;5.22;1.00;;;16.10;58.90;;;;;;5051807;28;20025;-71
2021/05/27 11:14:45;;;;;;;1.60;0.98;;;16.30;57.90;;;;;;4999118;28;20049;-71
2021/05/27 11:17:21;;;;;;;2.30;0.80;;;16.40;57.60;;;;;;5048825;28;20033;-71
2021/05/27 11:19:55;;;;;;;2.30;0.80;;;16.50;56.90;;;;;;5045678;28;20386;-71
2021/05/27 11:22:38;;;;;;;1.88;1.10;;;16.80;60.90;;;;;;5052265;28;20036;-71
2021/05/27 11:25:17;;;;;;;4.78;1.10;;;17.50;63.10;;;;;;5046115;28;20037;-73
2021/05/27 11:28:00;;;;;;;2.22;0.80;;;17.70;54.10;;;;;;5035557;28;20026;-72
2021/05/27 11:30:30;;;;;;;2.30;1.17;;;17.80;52.30;;;;;;5034418;28;20032;-72
2021/05/27 11:33:14;;;;;;;1.43;0.80;;;17.70;54.00;;;;;;5033723;28;20099;-72
2021/05/27 11:35:40;;;;;;;6.60;0.98;;;17.50;54.10;;;;;;5048124;28;20292;-72
2021/05/27 11:38:07;;;;;;;1.98;0.60;;;17.40;52.30;;;;;;5043714;28;20530;-71
2021/05/27 11:40:36;;;;;;;4.47;0.88;;;17.30;51.70;;;;;;5022994;28;20378;-73
2021/05/27 11:43:02;;;;;;;1.60;0.75;;;17.20;52.70;;;;;;5047870;28;20085;-70
2021/05/27 11:45:37;;;;;;;1.58;0.90;;;17.50;52.30;;;;;;5034908;28;20604;-71
2021/05/27 11:48:16;;;;;;;0.90;0.60;;;17.90;51.10;;;;;;5021812;28;20190;-72
2021/05/27 11:50:42;;;;;;;2.20;0.77;;;18.50;53.60;;;;;;5037054;28;20033;-72
2021/05/27 11:53:09;;;;;;;1.85;0.80;;;18.50;51.10;;;;;;5036653;28;20114;-73
2021/05/27 11:55:35;;;;;;;4.38;0.77;;;18.40;51.30;;;;;;5033237;28;20100;-71
2021/05/27 11:58:02;;;;;;;2.45;0.90;;;18.00;51.70;;;;;;5038212;28;20128;-72
2021/05/27 12:00:28;;;;;;;1.05;0.85;;;17.70;53.10;;;;;;5031772;28;20100;-71
2021/05/27 12:02:57;;;;;;;1.48;0.80;;;17.60;53.00;;;;;;5032950;28;20531;-71
2021/05/27 12:05:25;;;;;;;1.75;0.70;;;17.60;52.70;;;;;;5040998;28;20060;-71
2021/05/27 12:08:03;;;;;;;2.13;0.90;;;17.60;52.80;;;;;;5022972;28;20473;-73
2021/05/27 12:10:35;;;;;;;3.10;0.90;;;17.60;53.80;;;;;;5031732;28;20041;-72
2021/05/27 12:13:02;;;;;;;3.00;0.80;;;17.70;53.20;;;;;;5033335;28;20382;-73
2021/05/27 12:15:29;;;;;;;2.90;0.80;;;17.80;52.10;;;;;;5037940;28;20108;-72
2021/05/27 12:17:57;;;;;;;2.13;0.90;;;17.80;52.20;;;;;;5050611;28;20025;-72
2021/05/27 12:20:31;;;;;;;1.02;0.55;;;17.90;52.30;;;;;;5042080;28;20029;-72
2021/05/27 12:22:57;;;;;;;1.75;0.88;;;18.00;52.20;;;;;;5034229;28;20037;-72
2021/05/27 12:25:27;;;;;;;1.63;0.80;;;18.20;50.30;;;;;;5051396;28;20394;-72
2021/05/27 12:27:58;;;;;;;1.60;0.70;;;18.70;60.80;;;;;;5048415;28;20032;-72
2021/05/27 12:30:28;;;;;;;1.75;0.52;;;19.20;48.20;;;;;;5050962;28;20033;-71
2021/05/27 12:32:56;;;;;;;2.92;0.80;;;19.30;48.60;;;;;;5020109;28;20057;-72
2021/05/27 12:35:26;;;;;;;2.00;0.88;;;19.30;49.10;;;;;;5046734;28;20065;-71
2021/05/27 12:37:55;;;;;;;;;;;19.40;49.50;;;;;;5050309;28;20029;-72
2021/05/27 12:40:28;;;;;;;0.73;0.60;;;19.30;50.90;;;;;;5039625;28;19915;-71
2021/05/27 12:42:56;;;;;;;1.00;0.80;;;19.30;52.80;;;;;;5032492;28;20064;-72
2021/05/27 12:45:35;;;;;;;0.60;0.60;;;19.20;50.80;;;;;;5045440;28;20393;-72
2021/05/27 12:48:09;;;;;;;1.02;0.73;;;19.90;51.10;;;;;;5045119;28;20130;-72
2021/05/27 12:50:37;;;;;;;1.58;0.60;;;20.10;52.00;;;;;;5032536;28;20024;-72
2021/05/27 12:53:04;;;;;;;3.47;0.82;;;20.00;51.20;;;;;;5043047;28;20232;-72
2021/05/27 12:55:33;;;;;;;3.30;0.60;;;20.10;52.60;;;;;;5044579;28;20029;-72
2021/05/27 12:58:00;;;;;;;3.38;0.80;;;20.10;51.50;;;;;;5037255;28;20061;-72
2021/05/27 13:00:27;;;;;;;1.15;0.85;;;19.90;54.70;;;;;;5042145;28;20033;-72
2021/05/27 13:03:05;;;;;;;1.63;0.65;;;19.60;58.20;;;;;;5049945;28;20025;-72
2021/05/27 13:05:31;;;;;;;0.80;0.60;;;19.10;57.30;;;;;;5047833;28;20112;-72
2021/05/27 13:07:59;;;;;;;1.98;0.88;;;;;;;;;;5036216;28;20045;-71
2021/05/27 13:10:28;;;;;;;1.25;1.02;;;17.80;51.30;;;;;;5031133;28;20056;-73